sensor_id;sensor_type;location;lat;lon;timestamp;pressure;altitude;pressure_sealevel;temperature;humidity
7052;BME280;3567;52.444;13.556;2023-02-22T00:00:15;101338.66;;;6.89;97.73
7052;BME280;3567;52.444;13.556;2023-02-22T00:02:50;101339.03;;;6.86;98.34
7052;BME280;3567;52.444;13.556;2023-02-22T00:05:18;101339.22;;;6.84;98.50
7052;BME280;3567;52.444;13.556;2023-02-22T00:07:49;101344.09;;;6.80;98.35
7052;BME280;3567;52.444;13.556;2023-02-22T00:10:15;101334.84;;;6.76;99.01
7052;BME280;3567;52.444;13.556;2023-02-22T00:12:46;101335.22;;;6.73;98.47
7052;BME280;3567;52.444;13.556;2023-02-22T00:15:14;101337.81;;;6.67;98.60
7052;BME280;3567;52.444;13.556;2023-02-22T00:17:39;101335.31;;;6.65;99.20
7052;BME280;3567;52.444;13.556;2023-02-22T00:20:05;101326.72;;;6.63;99.77
7052;BME280;3567;52.444;13.556;2023-02-22T00:22:31;101329.56;;;6.62;99.69
7052;BME280;3567;52.444;13.556;2023-02-22T00:24:57;101330.75;;;6.59;100.00
7052;BME280;3567;52.444;13.556;2023-02-22T00:27:23;101331.97;;;6.56;100.00
7052;BME280;3567;52.444;13.556;2023-02-22T00:29:48;101327.22;;;6.52;99.72
7052;BME280;3567;52.444;13.556;2023-02-22T00:32:14;101326.59;;;6.50;100.00
7052;BME280;3567;52.444;13.556;2023-02-22T00:34:40;101324.09;;;6.48;100.00
7052;BME280;3567;52.444;13.556;2023-02-22T00:37:05;101328.13;;;6.44;100.00
7052;BME280;3567;52.444;13.556;2023-02-22T00:39:31;101322.19;;;6.42;100.00
7052;BME280;3567;52.444;13.556;2023-02-22T00:41:56;101316.22;;;6.40;100.00
7052;BME280;3567;52.444;13.556;2023-02-22T00:44:22;101325.78;;;6.35;100.00
7052;BME280;3567;52.444;13.556;2023-02-22T00:46:47;101320.19;;;6.29;100.00
7052;BME280;3567;52.444;13.556;2023-02-22T00:49:14;101324.22;;;6.25;100.00
7052;BME280;3567;52.444;13.556;2023-02-22T00:51:40;101322.13;;;6.21;100.00
7052;BME280;3567;52.444;13.556;2023-02-22T00:54:05;101322.66;;;6.16;100.00
7052;BME280;3567;52.444;13.556;2023-02-22T00:56:32;101322.03;;;6.14;100.00
7052;BME280;3567;52.444;13.556;2023-02-22T00:59:02;101332.03;;;6.12;100.00
7052;BME280;3567;52.444;13.556;2023-02-22T01:01:27;101326.06;;;6.10;100.00
7052;BME280;3567;52.444;13.556;2023-02-22T01:03:53;101327.91;;;6.10;100.00
7052;BME280;3567;52.444;13.556;2023-02-22T01:06:19;101327.72;;;6.11;100.00
7052;BME280;3567;52.444;13.556;2023-02-22T01:08:45;101319.09;;;6.09;100.00
7052;BME280;3567;52.444;13.556;2023-02-22T01:11:11;101319.47;;;6.06;100.00
7052;BME280;3567;52.444;13.556;2023-02-22T01:13:37;101319.47;;;6.06;100.00
7052;BME280;3567;52.444;13.556;2023-02-22T01:16:03;101321.84;;;6.01;100.00
7052;BME280;3567;52.444;13.556;2023-02-22T01:18:28;101326.53;;;5.99;100.00
7052;BME280;3567;52.444;13.556;2023-02-22T01:20:54;101325.91;;;5.97;100.00
7052;BME280;3567;52.444;13.556;2023-02-22T01:23:19;101324.25;;;5.96;100.00
7052;BME280;3567;52.444;13.556;2023-02-22T01:25:45;101326.25;;;5.94;100.00
7052;BME280;3567;52.444;13.556;2023-02-22T01:28:11;101322.97;;;5.92;100.00
7052;BME280;3567;52.444;13.556;2023-02-22T01:30:37;101318.47;;;5.92;100.00
7052;BME280;3567;52.444;13.556;2023-02-22T01:33:05;101321.28;;;5.91;100.00
7052;BME280;3567;52.444;13.556;2023-02-22T01:35:33;101317.97;;;5.89;100.00
7052;BME280;3567;52.444;13.556;2023-02-22T01:37:58;101314.69;;;5.87;100.00
7052;BME280;3567;52.444;13.556;2023-02-22T01:40:30;101308.91;;;5.83;100.00
7052;BME280;3567;52.444;13.556;2023-02-22T01:42:58;101305.97;;;5.78;100.00
7052;BME280;3567;52.444;13.556;2023-02-22T01:48:11;101302.94;;;5.66;100.00
7052;BME280;3567;52.444;13.556;2023-02-22T01:50:48;101306.88;;;5.56;100.00
7052;BME280;3567;52.444;13.556;2023-02-22T01:53:17;101309.78;;;5.46;100.00
7052;BME280;3567;52.444;13.556;2023-02-22T01:55:43;101311.88;;;5.36;100.00
7052;BME280;3567;52.444;13.556;2023-02-22T01:58:10;101315.59;;;5.26;100.00
7052;BME280;3567;52.444;13.556;2023-02-22T02:00:37;101302.59;;;5.17;100.00
7052;BME280;3567;52.444;13.556;2023-02-22T02:03:07;101309.41;;;5.11;100.00
7052;BME280;3567;52.444;13.556;2023-02-22T02:05:35;101317.28;;;5.05;100.00
7052;BME280;3567;52.444;13.556;2023-02-22T02:08:09;101308.00;;;5.00;100.00
7052;BME280;3567;52.444;13.556;2023-02-22T02:10:39;101303.25;;;4.96;100.00
7052;BME280;3567;52.444;13.556;2023-02-22T02:13:05;101300.31;;;4.91;100.00
7052;BME280;3567;52.444;13.556;2023-02-22T02:15:32;101298.72;;;4.82;100.00
7052;BME280;3567;52.444;13.556;2023-02-22T02:18:09;101302.41;;;4.72;100.00
7052;BME280;3567;52.444;13.556;2023-02-22T02:32:26;101287.91;;;4.29;100.00
7052;BME280;3567;52.444;13.556;2023-02-22T02:35:19;101294.56;;;4.25;100.00
7052;BME280;3567;52.444;13.556;2023-02-22T02:37:58;101300.22;;;4.22;100.00
7052;BME280;3567;52.444;13.556;2023-02-22T02:40:35;101291.78;;;4.18;100.00
7052;BME280;3567;52.444;13.556;2023-02-22T02:48:30;101303.91;;;4.13;100.00
7052;BME280;3567;52.444;13.556;2023-02-22T02:50:58;101295.78;;;4.14;100.00
7052;BME280;3567;52.444;13.556;2023-02-22T02:53:32;101301.38;;;4.19;100.00
7052;BME280;3567;52.444;13.556;2023-02-22T02:55:59;101287.78;;;4.23;100.00
7052;BME280;3567;52.444;13.556;2023-02-22T02:58:25;101288.44;;;4.25;100.00
7052;BME280;3567;52.444;13.556;2023-02-22T03:00:53;101295.38;;;4.26;100.00
7052;BME280;3567;52.444;13.556;2023-02-22T03:03:57;101297.69;;;4.29;100.00
7052;BME280;3567;52.444;13.556;2023-02-22T03:06:37;101294.22;;;4.28;100.00
7052;BME280;3567;52.444;13.556;2023-02-22T03:09:19;101290.75;;;4.28;100.00
7052;BME280;3567;52.444;13.556;2023-02-22T03:11:59;101292.72;;;4.26;100.00
7052;BME280;3567;52.444;13.556;2023-02-22T03:14:39;101293.09;;;4.23;100.00
7052;BME280;3567;52.444;13.556;2023-02-22T03:17:16;101293.72;;;4.25;100.00
7052;BME280;3567;52.444;13.556;2023-02-22T03:20:13;101280.03;;;4.21;100.00
7052;BME280;3567;52.444;13.556;2023-02-22T03:23:02;101284.31;;;4.22;100.00
7052;BME280;3567;52.444;13.556;2023-02-22T03:25:42;101286.16;;;4.22;100.00
7052;BME280;3567;52.444;13.556;2023-02-22T03:28:13;101288.94;;;4.20;100.00
7052;BME280;3567;52.444;13.556;2023-02-22T03:30:45;101277.38;;;4.13;100.00
7052;BME280;3567;52.444;13.556;2023-02-22T03:33:40;101281.88;;;4.12;100.00
7052;BME280;3567;52.444;13.556;2023-02-22T03:39:13;101284.47;;;4.20;100.00
7052;BME280;3567;52.444;13.556;2023-02-22T03:41:42;101283.13;;;4.25;100.00
7052;BME280;3567;52.444;13.556;2023-02-22T03:44:14;101286.44;;;4.27;100.00
7052;BME280;3567;52.444;13.556;2023-02-22T03:46:41;101280.97;;;4.28;100.00
7052;BME280;3567;52.444;13.556;2023-02-22T03:51:47;101289.22;;;4.33;100.00
7052;BME280;3567;52.444;13.556;2023-02-22T03:54:13;101286.88;;;4.38;100.00
7052;BME280;3567;52.444;13.556;2023-02-22T03:56:51;101280.03;;;4.44;100.00
7052;BME280;3567;52.444;13.556;2023-02-22T03:59:19;101287.31;;;4.50;100.00
7052;BME280;3567;52.444;13.556;2023-02-22T04:01:49;101285.97;;;4.54;100.00
7052;BME280;3567;52.444;13.556;2023-02-22T04:04:15;101293.41;;;4.59;100.00
7052;BME280;3567;52.444;13.556;2023-02-22T04:06:42;101290.19;;;4.63;100.00
7052;BME280;3567;52.444;13.556;2023-02-22T04:09:08;101288.84;;;4.67;100.00
7052;BME280;3567;52.444;13.556;2023-02-22T04:11:33;101299.94;;;4.71;100.00
7052;BME280;3567;52.444;13.556;2023-02-22T04:13:58;101294.44;;;4.72;100.00
7052;BME280;3567;52.444;13.556;2023-02-22T04:16:25;101292.47;;;4.75;100.00
7052;BME280;3567;52.444;13.556;2023-02-22T04:18:50;101292.09;;;4.78;100.00
7052;BME280;3567;52.444;13.556;2023-02-22T04:21:15;101298.72;;;4.82;100.00
7052;BME280;3567;52.444;13.556;2023-02-22T04:23:41;101289.72;;;4.83;100.00
7052;BME280;3567;52.444;13.556;2023-02-22T04:26:06;101290.56;;;4.83;100.00
7052;BME280;3567;52.444;13.556;2023-02-22T04:28:31;101288.72;;;4.84;100.00
7052;BME280;3567;52.444;13.556;2023-02-22T04:30:57;101283.25;;;4.85;100.00
7052;BME280;3567;52.444;13.556;2023-02-22T04:33:22;101282.78;;;4.82;100.00
7052;BME280;3567;52.444;13.556;2023-02-22T04:35:47;101292.75;;;4.80;100.00
7052;BME280;3567;52.444;13.556;2023-02-22T04:38:13;101289.81;;;4.75;100.00
7052;BME280;3567;52.444;13.556;2023-02-22T04:40:39;101288.50;;;4.70;100.00
7052;BME280;3567;52.444;13.556;2023-02-22T04:43:04;101287.00;;;4.68;100.00
7052;BME280;3567;52.444;13.556;2023-02-22T04:45:30;101274.75;;;4.67;100.00
7052;BME280;3567;52.444;13.556;2023-02-22T04:47:55;101280.88;;;4.67;100.00
7052;BME280;3567;52.444;13.556;2023-02-22T04:50:21;101277.22;;;4.68;100.00
7052;BME280;3567;52.444;13.556;2023-02-22T04:52:46;101277.22;;;4.68;100.00
7052;BME280;3567;52.444;13.556;2023-02-22T04:55:12;101279.72;;;4.70;100.00
7052;BME280;3567;52.444;13.556;2023-02-22T04:57:37;101283.19;;;4.70;100.00
7052;BME280;3567;52.444;13.556;2023-02-22T05:00:04;101288.50;;;4.70;100.00
7052;BME280;3567;52.444;13.556;2023-02-22T05:02:30;101288.69;;;4.69;100.00
7052;BME280;3567;52.444;13.556;2023-02-22T05:04:56;101290.69;;;4.67;100.00
7052;BME280;3567;52.444;13.556;2023-02-22T05:07:21;101288.22;;;4.65;100.00
7052;BME280;3567;52.444;13.556;2023-02-22T05:09:46;101283.91;;;4.64;100.00
7052;BME280;3567;52.444;13.556;2023-02-22T05:12:12;101274.28;;;4.63;100.00
7052;BME280;3567;52.444;13.556;2023-02-22T05:14:37;101274.28;;;4.63;100.00
7052;BME280;3567;52.444;13.556;2023-02-22T05:17:03;101277.94;;;4.62;100.00
7052;BME280;3567;52.444;13.556;2023-02-22T05:19:28;101279.56;;;4.63;100.00
7052;BME280;3567;52.444;13.556;2023-02-22T05:21:54;101275.13;;;4.64;100.00
7052;BME280;3567;52.444;13.556;2023-02-22T05:24:20;101276.09;;;4.63;100.00
7052;BME280;3567;52.444;13.556;2023-02-22T05:26:46;101286.06;;;4.61;100.00
7052;BME280;3567;52.444;13.556;2023-02-22T05:29:12;101278.31;;;4.59;100.00
7052;BME280;3567;52.444;13.556;2023-02-22T05:31:38;101275.66;;;4.59;100.00
7052;BME280;3567;52.444;13.556;2023-02-22T05:34:05;101280.28;;;4.57;100.00
7052;BME280;3567;52.444;13.556;2023-02-22T05:36:31;101285.59;;;4.57;100.00
7052;BME280;3567;52.444;13.556;2023-02-22T05:38:56;101274.00;;;4.58;100.00
7052;BME280;3567;52.444;13.556;2023-02-22T05:41:21;101277.47;;;4.59;100.00
7052;BME280;3567;52.444;13.556;2023-02-22T05:43:47;101273.00;;;4.59;100.00
7052;BME280;3567;52.444;13.556;2023-02-22T05:46:13;101275.97;;;4.56;100.00
7052;BME280;3567;52.444;13.556;2023-02-22T05:48:39;101278.81;;;4.55;100.00
7052;BME280;3567;52.444;13.556;2023-02-22T05:51:05;101287.41;;;4.57;100.00
7052;BME280;3567;52.444;13.556;2023-02-22T05:53:31;101284.13;;;4.55;100.00
7052;BME280;3567;52.444;13.556;2023-02-22T05:55:57;101290.91;;;4.57;100.00
7052;BME280;3567;52.444;13.556;2023-02-22T05:58:22;101286.59;;;4.56;100.00
7052;BME280;3567;52.444;13.556;2023-02-22T06:00:47;101292.56;;;4.58;100.00
7052;BME280;3567;52.444;13.556;2023-02-22T06:03:13;101285.25;;;4.60;100.00
7052;BME280;3567;52.444;13.556;2023-02-22T06:05:38;101288.53;;;4.62;100.00
7052;BME280;3567;52.444;13.556;2023-02-22T06:08:05;101287.38;;;4.65;100.00
7052;BME280;3567;52.444;13.556;2023-02-22T06:10:31;101297.47;;;4.69;100.00
7052;BME280;3567;52.444;13.556;2023-02-22T06:12:58;101294.44;;;4.72;100.00
7052;BME280;3567;52.444;13.556;2023-02-22T06:15:24;101289.44;;;4.78;100.00
7052;BME280;3567;52.444;13.556;2023-02-22T06:17:51;101298.72;;;4.82;100.00
7052;BME280;3567;52.444;13.556;2023-02-22T06:20:20;101296.34;;;4.87;100.00
7052;BME280;3567;52.444;13.556;2023-02-22T06:22:47;101298.28;;;4.93;100.00
7052;BME280;3567;52.444;13.556;2023-02-22T06:25:15;101301.25;;;4.98;100.00
7052;BME280;3567;52.444;13.556;2023-02-22T06:27:41;101305.19;;;5.02;100.00
7052;BME280;3567;52.444;13.556;2023-02-22T06:30:08;101313.81;;;5.04;100.00
7052;BME280;3567;52.444;13.556;2023-02-22T06:32:34;101308.16;;;5.07;100.00
7052;BME280;3567;52.444;13.556;2023-02-22T06:34:59;101302.31;;;5.12;100.00
7052;BME280;3567;52.444;13.556;2023-02-22T06:37:24;101305.41;;;5.15;100.00
7052;BME280;3567;52.444;13.556;2023-02-22T06:39:49;101312.66;;;5.21;100.00
7052;BME280;3567;52.444;13.556;2023-02-22T06:42:15;101317.63;;;5.24;100.00
7052;BME280;3567;52.444;13.556;2023-02-22T06:44:40;101313.75;;;5.27;100.00
7052;BME280;3567;52.444;13.556;2023-02-22T06:47:05;101324.03;;;5.30;100.00
7052;BME280;3567;52.444;13.556;2023-02-22T06:49:31;101322.22;;;5.31;100.00
7052;BME280;3567;52.444;13.556;2023-02-22T06:51:56;101320.22;;;5.33;100.00
7052;BME280;3567;52.444;13.556;2023-02-22T06:54:22;101324.16;;;5.37;100.00
7052;BME280;3567;52.444;13.556;2023-02-22T06:56:47;101319.50;;;5.39;100.00
7052;BME280;3567;52.444;13.556;2023-02-22T06:59:14;101321.44;;;5.45;100.00
7052;BME280;3567;52.444;13.556;2023-02-22T07:01:40;101322.72;;;5.49;100.00
7052;BME280;3567;52.444;13.556;2023-02-22T07:04:05;101325.28;;;5.57;100.00
7052;BME280;3567;52.444;13.556;2023-02-22T07:06:30;101318.81;;;5.60;100.00
7052;BME280;3567;52.444;13.556;2023-02-22T07:08:56;101327.88;;;5.65;100.00
7052;BME280;3567;52.444;13.556;2023-02-22T07:11:21;101328.16;;;5.70;100.00
7052;BME280;3567;52.444;13.556;2023-02-22T07:13:47;101330.25;;;5.75;100.00
7052;BME280;3567;52.444;13.556;2023-02-22T07:16:12;101332.19;;;5.81;100.00
7052;BME280;3567;52.444;13.556;2023-02-22T07:18:38;101334.94;;;5.88;100.00
7052;BME280;3567;52.444;13.556;2023-02-22T07:21:03;101336.28;;;5.92;100.00
7052;BME280;3567;52.444;13.556;2023-02-22T07:23:29;101341.88;;;5.97;100.00
7052;BME280;3567;52.444;13.556;2023-02-22T07:25:54;101340.47;;;6.01;100.00
7052;BME280;3567;52.444;13.556;2023-02-22T07:28:20;101339.72;;;6.07;100.00
7052;BME280;3567;52.444;13.556;2023-02-22T07:30:45;101338.00;;;6.14;100.00
7052;BME280;3567;52.444;13.556;2023-02-22T07:33:11;101339.09;;;6.20;100.00
7052;BME280;3567;52.444;13.556;2023-02-22T07:35:45;101334.06;;;6.25;100.00
7052;BME280;3567;52.444;13.556;2023-02-22T07:38:12;101339.84;;;6.28;100.00
7052;BME280;3567;52.444;13.556;2023-02-22T07:40:38;101337.59;;;6.32;100.00
7052;BME280;3567;52.444;13.556;2023-02-22T07:43:04;101344.03;;;6.38;100.00
7052;BME280;3567;52.444;13.556;2023-02-22T07:45:32;101348.59;;;6.44;100.00
7052;BME280;3567;52.444;13.556;2023-02-22T07:47:59;101347.03;;;6.49;100.00
7052;BME280;3567;52.444;13.556;2023-02-22T07:50:26;101341.34;;;6.52;100.00
7052;BME280;3567;52.444;13.556;2023-02-22T07:52:54;101335.25;;;6.59;100.00
7052;BME280;3567;52.444;13.556;2023-02-22T07:55:23;101331.84;;;6.65;100.00
7052;BME280;3567;52.444;13.556;2023-02-22T07:57:50;101343.78;;;6.69;100.00
7052;BME280;3567;52.444;13.556;2023-02-22T08:00:25;101345.88;;;6.73;100.00
7052;BME280;3567;52.444;13.556;2023-02-22T08:02:51;101343.47;;;6.78;100.00
7052;BME280;3567;52.444;13.556;2023-02-22T08:05:18;101341.28;;;6.82;100.00
7052;BME280;3567;52.444;13.556;2023-02-22T08:07:44;101340.69;;;6.87;100.00
7052;BME280;3567;52.444;13.556;2023-02-22T08:10:10;101340.94;;;6.92;100.00
7052;BME280;3567;52.444;13.556;2023-02-22T08:12:36;101341.38;;;6.95;100.00
7052;BME280;3567;52.444;13.556;2023-02-22T08:15:04;101342.22;;;6.96;100.00
7052;BME280;3567;52.444;13.556;2023-02-22T08:17:29;101341.19;;;6.97;100.00
7052;BME280;3567;52.444;13.556;2023-02-22T08:19:54;101342.00;;;6.97;100.00
7052;BME280;3567;52.444;13.556;2023-02-22T08:22:20;101344.69;;;6.97;100.00
7052;BME280;3567;52.444;13.556;2023-02-22T08:24:46;101351.28;;;7.01;100.00
7052;BME280;3567;52.444;13.556;2023-02-22T08:27:11;101348.06;;;7.06;100.00
7052;BME280;3567;52.444;13.556;2023-02-22T08:29:36;101338.22;;;7.06;100.00
7052;BME280;3567;52.444;13.556;2023-02-22T08:32:02;101342.09;;;7.04;100.00
7052;BME280;3567;52.444;13.556;2023-02-22T08:34:28;101337.75;;;7.03;100.00
7052;BME280;3567;52.444;13.556;2023-02-22T08:36:53;101333.72;;;7.07;100.00
7052;BME280;3567;52.444;13.556;2023-02-22T08:39:19;101339.50;;;7.11;100.00
7052;BME280;3567;52.444;13.556;2023-02-22T08:41:44;101341.59;;;7.15;100.00
7052;BME280;3567;52.444;13.556;2023-02-22T08:44:10;101338.34;;;7.20;100.00
7052;BME280;3567;52.444;13.556;2023-02-22T08:46:35;101339.78;;;7.22;100.00
7052;BME280;3567;52.444;13.556;2023-02-22T08:49:00;101335.75;;;7.26;100.00
7052;BME280;3567;52.444;13.556;2023-02-22T08:51:27;101344.19;;;7.30;100.00
7052;BME280;3567;52.444;13.556;2023-02-22T08:53:52;101342.13;;;7.32;100.00
7052;BME280;3567;52.444;13.556;2023-02-22T08:56:19;101339.94;;;7.35;100.00
7052;BME280;3567;52.444;13.556;2023-02-22T08:58:44;101347.16;;;7.42;100.00
7052;BME280;3567;52.444;13.556;2023-02-22T09:01:09;101347.19;;;7.48;100.00
7052;BME280;3567;52.444;13.556;2023-02-22T09:03:35;101345.22;;;7.57;100.00
7052;BME280;3567;52.444;13.556;2023-02-22T09:06:00;101345.88;;;7.66;100.00
7052;BME280;3567;52.444;13.556;2023-02-22T09:08:26;101342.25;;;7.73;100.00
7052;BME280;3567;52.444;13.556;2023-02-22T09:10:51;101344.97;;;7.80;100.00
7052;BME280;3567;52.444;13.556;2023-02-22T09:13:17;101347.88;;;7.85;100.00
7052;BME280;3567;52.444;13.556;2023-02-22T09:15:42;101349.94;;;7.90;100.00
7052;BME280;3567;52.444;13.556;2023-02-22T09:18:11;101347.91;;;7.92;100.00
7052;BME280;3567;52.444;13.556;2023-02-22T09:20:39;101354.06;;;7.92;100.00
7052;BME280;3567;52.444;13.556;2023-02-22T09:23:06;101355.31;;;7.96;100.00
7052;BME280;3567;52.444;13.556;2023-02-22T09:25:34;101352.06;;;8.01;100.00
7052;BME280;3567;52.444;13.556;2023-02-22T09:28:00;101354.31;;;8.04;100.00
7052;BME280;3567;52.444;13.556;2023-02-22T09:30:28;101353.56;;;8.10;100.00
7052;BME280;3567;52.444;13.556;2023-02-22T09:32:58;101350.25;;;8.08;100.00
7052;BME280;3567;52.444;13.556;2023-02-22T09:35:24;101354.38;;;8.10;100.00
7052;BME280;3567;52.444;13.556;2023-02-22T09:37:58;101348.25;;;8.17;100.00
7052;BME280;3567;52.444;13.556;2023-02-22T09:40:27;101338.44;;;8.24;100.00
7052;BME280;3567;52.444;13.556;2023-02-22T09:43:20;101342.16;;;8.29;100.00
7052;BME280;3567;52.444;13.556;2023-02-22T09:48:33;101344.03;;;8.35;100.00
7052;BME280;3567;52.444;13.556;2023-02-22T09:51:02;101338.31;;;8.38;100.00
7052;BME280;3567;52.444;13.556;2023-02-22T09:53:37;101335.09;;;8.50;100.00
7052;BME280;3567;52.444;13.556;2023-02-22T09:56:09;101334.91;;;8.58;99.72
7052;BME280;3567;52.444;13.556;2023-02-22T09:58:51;101330.19;;;8.60;99.32
7052;BME280;3567;52.444;13.556;2023-02-22T10:04:18;101329.00;;;8.69;98.62
7052;BME280;3567;52.444;13.556;2023-02-22T10:09:40;101331.69;;;8.82;98.53
7052;BME280;3567;52.444;13.556;2023-02-22T10:17:40;101324.53;;;9.03;98.12
7052;BME280;3567;52.444;13.556;2023-02-22T10:20:41;101321.66;;;9.11;97.48
7052;BME280;3567;52.444;13.556;2023-02-22T10:25:45;101317.97;;;9.18;95.84
7052;BME280;3567;52.444;13.556;2023-02-22T10:28:20;101320.63;;;9.25;95.84
7052;BME280;3567;52.444;13.556;2023-02-22T10:30:57;101318.38;;;9.22;93.19
7052;BME280;3567;52.444;13.556;2023-02-22T10:33:29;101316.72;;;9.21;93.41
7052;BME280;3567;52.444;13.556;2023-02-22T10:35:56;101315.47;;;9.10;91.75
7052;BME280;3567;52.444;13.556;2023-02-22T10:38:29;101323.31;;;9.12;92.51
7052;BME280;3567;52.444;13.556;2023-02-22T10:41:00;101314.25;;;9.13;92.13
7052;BME280;3567;52.444;13.556;2023-02-22T10:43:26;101314.47;;;9.18;92.34
7052;BME280;3567;52.444;13.556;2023-02-22T10:45:55;101310.56;;;9.27;92.42
7052;BME280;3567;52.444;13.556;2023-02-22T10:48:23;101304.78;;;9.30;91.97
7052;BME280;3567;52.444;13.556;2023-02-22T10:50:51;101309.31;;;9.36;92.26
7052;BME280;3567;52.444;13.556;2023-02-22T10:53:18;101313.66;;;9.44;92.34
7052;BME280;3567;52.444;13.556;2023-02-22T10:56:19;101311.16;;;9.36;90.21
7052;BME280;3567;52.444;13.556;2023-02-22T10:59:00;101313.84;;;9.29;90.69
7052;BME280;3567;52.444;13.556;2023-02-22T11:04:12;101307.28;;;9.38;91.00
7052;BME280;3567;52.444;13.556;2023-02-22T11:06:47;101314.69;;;9.43;91.15
7052;BME280;3567;52.444;13.556;2023-02-22T11:09:18;101300.66;;;9.48;90.73
7052;BME280;3567;52.444;13.556;2023-02-22T11:11:47;101295.34;;;9.54;91.10
7052;BME280;3567;52.444;13.556;2023-02-22T11:14:25;101300.06;;;9.59;90.87
7052;BME280;3567;52.444;13.556;2023-02-22T11:16:53;101301.91;;;9.65;90.96
7052;BME280;3567;52.444;13.556;2023-02-22T11:19:23;101298.59;;;9.69;90.81
7052;BME280;3567;52.444;13.556;2023-02-22T11:21:52;101294.44;;;9.74;89.82
7052;BME280;3567;52.444;13.556;2023-02-22T11:24:20;101298.16;;;9.79;89.88
7052;BME280;3567;52.444;13.556;2023-02-22T11:26:58;101301.63;;;9.80;89.17
7052;BME280;3567;52.444;13.556;2023-02-22T11:29:27;101295.47;;;9.79;89.30
7052;BME280;3567;52.444;13.556;2023-02-22T11:31:56;101292.38;;;9.82;89.56
7052;BME280;3567;52.444;13.556;2023-02-22T11:34:38;101287.25;;;9.81;87.50
7052;BME280;3567;52.444;13.556;2023-02-22T11:39:47;101286.66;;;9.72;86.54
7052;BME280;3567;52.444;13.556;2023-02-22T11:42:25;101283.16;;;9.71;87.20
7052;BME280;3567;52.444;13.556;2023-02-22T11:47:34;101265.84;;;9.81;87.07
7052;BME280;3567;52.444;13.556;2023-02-22T11:50:00;101265.63;;;9.82;86.82
7052;BME280;3567;52.444;13.556;2023-02-22T11:52:38;101264.00;;;9.81;85.97
7052;BME280;3567;52.444;13.556;2023-02-22T11:55:26;101255.38;;;9.73;85.33
7052;BME280;3567;52.444;13.556;2023-02-22T12:03:56;101246.31;;;9.74;85.74
7052;BME280;3567;52.444;13.556;2023-02-22T12:09:33;101251.59;;;9.93;85.74
7052;BME280;3567;52.444;13.556;2023-02-22T12:14:43;101249.13;;;9.92;85.32
7052;BME280;3567;52.444;13.556;2023-02-22T12:20:01;101241.31;;;9.90;84.89
7052;BME280;3567;52.444;13.556;2023-02-22T12:22:33;101242.53;;;9.94;85.36
7052;BME280;3567;52.444;13.556;2023-02-22T12:27:32;101246.84;;;9.95;85.60
7052;BME280;3567;52.444;13.556;2023-02-22T12:30:04;101244.16;;;9.95;85.54
7052;BME280;3567;52.444;13.556;2023-02-22T12:32:36;101245.38;;;10.00;85.46
7052;BME280;3567;52.444;13.556;2023-02-22T12:35:29;101244.38;;;9.94;83.78
7052;BME280;3567;52.444;13.556;2023-02-22T12:43:43;101244.13;;;10.09;83.24
7052;BME280;3567;52.444;13.556;2023-02-22T12:48:59;101247.47;;;9.97;82.45
7052;BME280;3567;52.444;13.556;2023-02-22T12:56:54;101240.84;;;10.07;82.20
7052;BME280;3567;52.444;13.556;2023-02-22T12:59:32;101235.06;;;10.10;82.29
7052;BME280;3567;52.444;13.556;2023-02-22T13:02:11;101240.38;;;10.16;82.30
7052;BME280;3567;52.444;13.556;2023-02-22T13:04:39;101241.59;;;10.20;82.40
7052;BME280;3567;52.444;13.556;2023-02-22T13:10:23;101238.09;;;10.20;82.54
7052;BME280;3567;52.444;13.556;2023-02-22T13:23:51;101227.66;;;10.05;82.06
7052;BME280;3567;52.444;13.556;2023-02-22T13:28:59;101223.56;;;10.03;82.23
7052;BME280;3567;52.444;13.556;2023-02-22T13:37:24;101218.25;;;9.96;82.08
7052;BME280;3567;52.444;13.556;2023-02-22T13:51:08;101212.03;;;10.02;82.25
7052;BME280;3567;52.444;13.556;2023-02-22T13:53:47;101205.19;;;10.06;82.12
7052;BME280;3567;52.444;13.556;2023-02-22T13:56:15;101203.81;;;9.97;81.11
7052;BME280;3567;52.444;13.556;2023-02-22T13:58:58;101211.03;;;9.96;81.68
7052;BME280;3567;52.444;13.556;2023-02-22T14:06:53;101212.00;;;10.09;82.02
7052;BME280;3567;52.444;13.556;2023-02-22T14:09:46;101212.41;;;10.12;81.17
7052;BME280;3567;52.444;13.556;2023-02-22T14:17:47;101210.78;;;10.05;81.57
7052;BME280;3567;52.444;13.556;2023-02-22T14:22:49;101203.84;;;9.90;81.73
7052;BME280;3567;52.444;13.556;2023-02-22T14:25:35;101194.41;;;9.88;82.25
7052;BME280;3567;52.444;13.556;2023-02-22T14:28:04;101194.81;;;9.85;82.30
7052;BME280;3567;52.444;13.556;2023-02-22T14:30:33;101197.66;;;9.90;82.74
7052;BME280;3567;52.444;13.556;2023-02-22T14:33:00;101204.47;;;9.92;82.93
7052;BME280;3567;52.444;13.556;2023-02-22T14:35:31;101193.13;;;9.97;83.51
7052;BME280;3567;52.444;13.556;2023-02-22T14:37:59;101191.25;;;9.97;83.35
7052;BME280;3567;52.444;13.556;2023-02-22T14:40:30;101189.81;;;9.95;82.86
7052;BME280;3567;52.444;13.556;2023-02-22T14:45:31;101192.94;;;9.92;83.58
7052;BME280;3567;52.444;13.556;2023-02-22T14:48:04;101184.50;;;9.88;83.98
7052;BME280;3567;52.444;13.556;2023-02-22T14:53:06;101177.97;;;9.78;84.08
7052;BME280;3567;52.444;13.556;2023-02-22T14:55:51;101178.78;;;9.78;84.42
7052;BME280;3567;52.444;13.556;2023-02-22T14:58:23;101181.47;;;9.78;84.25
7052;BME280;3567;52.444;13.556;2023-02-22T15:00:51;101178.56;;;9.80;84.93
7052;BME280;3567;52.444;13.556;2023-02-22T15:05:46;101171.41;;;9.74;84.99
7052;BME280;3567;52.444;13.556;2023-02-22T15:08:15;101173.50;;;9.65;84.72
7052;BME280;3567;52.444;13.556;2023-02-22T15:10:47;101176.19;;;9.58;84.89
7052;BME280;3567;52.444;13.556;2023-02-22T15:13:16;101169.81;;;9.53;84.69
7052;BME280;3567;52.444;13.556;2023-02-22T15:15:47;101166.75;;;9.42;85.05
7052;BME280;3567;52.444;13.556;2023-02-22T15:20:57;101169.88;;;9.39;85.47
7052;BME280;3567;52.444;13.556;2023-02-22T15:23:26;101169.47;;;9.36;85.45
7052;BME280;3567;52.444;13.556;2023-02-22T15:25:54;101168.22;;;9.32;85.68
7052;BME280;3567;52.444;13.556;2023-02-22T15:28:22;101161.25;;;9.31;85.81
7052;BME280;3567;52.444;13.556;2023-02-22T15:30:48;101162.06;;;9.31;85.70